createdAt,value
2018-09-30T00:00:50.248Z,3.38
2018-09-30T00:02:50.567Z,3.33
2018-09-30T00:04:50.218Z,3.31
2018-09-30T00:06:50.594Z,3.30
2018-09-30T00:08:49.911Z,3.29
2018-09-30T00:10:50.159Z,3.30
2018-09-30T00:12:50.451Z,3.29
2018-09-30T00:14:50.733Z,3.26
2018-09-30T00:16:50.274Z,3.26
2018-09-30T00:18:50.606Z,3.26
2018-09-30T00:20:50.044Z,3.28
2018-09-30T00:22:50.391Z,3.24
2018-09-30T00:24:50.772Z,3.20
2018-09-30T00:26:50.339Z,3.16
2018-09-30T00:28:49.885Z,3.12
2018-09-30T00:30:50.299Z,3.12
2018-09-30T00:32:50.606Z,3.09
2018-09-30T00:34:50.292Z,3.07
2018-09-30T00:36:50.764Z,3.05
2018-09-30T00:38:50.157Z,3.04
2018-09-30T00:40:50.435Z,3.04
2018-09-30T00:42:50.777Z,3.03
2018-09-30T00:44:50.055Z,3.02
2018-09-30T00:46:50.520Z,2.98
2018-09-30T00:48:50.749Z,2.97
2018-09-30T00:50:50.195Z,2.89
2018-09-30T00:52:50.490Z,2.86
2018-09-30T00:54:50.697Z,2.84
2018-09-30T00:56:50.184Z,2.81
2018-09-30T00:58:50.343Z,2.79
2018-09-30T01:00:50.581Z,2.76
2018-09-30T01:02:50.792Z,2.76
2018-09-30T01:04:50.470Z,2.74
2018-09-30T01:06:49.971Z,2.68
2018-09-30T01:08:50.300Z,2.66
2018-09-30T01:10:50.580Z,2.64
2018-09-30T01:12:50.758Z,2.59
2018-09-30T01:14:49.954Z,2.55
2018-09-30T01:16:50.499Z,2.54
2018-09-30T01:18:50.833Z,2.48
2018-09-30T01:20:50.041Z,2.45
2018-09-30T01:22:50.257Z,2.40
2018-09-30T01:24:50.484Z,2.40
2018-09-30T01:26:49.959Z,2.40
2018-09-30T01:28:50.141Z,2.37
2018-09-30T01:30:50.318Z,2.34
2018-09-30T01:32:50.546Z,2.30
2018-09-30T01:34:50.219Z,2.26
2018-09-30T01:36:50.628Z,2.22
2018-09-30T01:38:49.919Z,2.20
2018-09-30T01:40:50.068Z,2.17
2018-09-30T01:42:50.246Z,2.15
2018-09-30T01:44:50.432Z,2.12
2018-09-30T01:46:50.822Z,2.11
2018-09-30T01:48:50.099Z,2.12
2018-09-30T01:50:50.292Z,2.14
2018-09-30T01:52:50.517Z,2.13
2018-09-30T01:54:50.120Z,2.16
2018-09-30T01:56:50.562Z,2.18
2018-09-30T01:58:50.740Z,2.11
2018-09-30T02:00:50.008Z,2.08
2018-09-30T02:02:50.323Z,2.03
2018-09-30T02:04:49.893Z,1.99
2018-09-30T02:06:50.439Z,1.98
2018-09-30T02:08:50.666Z,1.94
2018-09-30T02:10:49.910Z,1.92
2018-09-30T02:12:50.175Z,1.84
2018-09-30T02:14:50.327Z,1.83
2018-09-30T02:16:50.646Z,1.79
2018-09-30T02:18:49.891Z,1.72
2018-09-30T02:20:50.048Z,1.66
2018-09-30T02:22:50.121Z,1.65
2018-09-30T02:24:50.302Z,1.68
2018-09-30T02:26:50.747Z,1.69
2018-09-30T02:28:49.996Z,1.66
2018-09-30T02:30:50.220Z,1.65
2018-09-30T02:32:50.526Z,1.62
2018-09-30T02:34:50.068Z,1.62
2018-09-30T02:36:50.644Z,1.61
2018-09-30T02:38:50.854Z,1.62
2018-09-30T02:40:50.033Z,1.65
2018-09-30T02:42:50.309Z,1.65
2018-09-30T02:44:50.531Z,1.65
2018-09-30T02:46:50.062Z,1.62
2018-09-30T02:48:50.417Z,1.62
2018-09-30T02:50:50.723Z,1.62
2018-09-30T02:52:50.112Z,1.57
2018-09-30T02:54:50.520Z,1.52
2018-09-30T02:56:50.080Z,1.51
2018-09-30T02:58:50.500Z,1.48
2018-09-30T03:00:49.927Z,1.48
2018-09-30T03:02:50.297Z,1.47
2018-09-30T03:04:50.888Z,1.47
2018-09-30T03:06:50.453Z,1.45
2018-09-30T03:08:50.749Z,1.42
2018-09-30T03:10:50.551Z,1.42
2018-09-30T03:12:49.892Z,1.36
2018-09-30T03:14:50.290Z,1.34
2018-09-30T03:16:49.914Z,1.33
2018-09-30T03:18:50.309Z,1.30
2018-09-30T03:20:50.730Z,1.28
2018-09-30T03:22:50.084Z,1.27
2018-09-30T03:24:50.494Z,1.24
2018-09-30T03:26:49.890Z,1.21
2018-09-30T03:28:50.187Z,1.18
2018-09-30T03:30:50.591Z,1.18
2018-09-30T03:32:49.889Z,1.17
2018-09-30T03:34:50.712Z,1.16
2018-09-30T03:36:50.273Z,1.16
2018-09-30T03:38:50.648Z,1.13
2018-09-30T03:40:50.085Z,1.11
2018-09-30T03:42:50.342Z,1.09
2018-09-30T03:44:50.580Z,1.08
2018-09-30T03:46:50.045Z,1.06
2018-09-30T03:48:50.359Z,1.06
2018-09-30T03:50:50.678Z,1.05
2018-09-30T03:52:50.027Z,1.02
2018-09-30T03:54:50.206Z,1.00
2018-09-30T03:56:51.480Z,0.96
2018-09-30T03:58:50.680Z,0.95
2018-09-30T04:00:49.925Z,0.93
2018-09-30T04:02:50.124Z,0.90
2018-09-30T04:04:50.579Z,0.88
2018-09-30T04:06:50.112Z,0.86
2018-09-30T04:08:50.336Z,0.86
2018-09-30T04:10:50.569Z,0.85
2018-09-30T04:12:50.814Z,0.84
2018-09-30T04:14:50.062Z,0.83
2018-09-30T04:16:50.782Z,0.84
2018-09-30T04:18:50.077Z,0.88
2018-09-30T04:20:50.328Z,0.91
2018-09-30T04:22:50.453Z,0.89
2018-09-30T04:24:50.836Z,0.88
2018-09-30T04:26:50.630Z,0.88
2018-09-30T04:28:50.846Z,0.81
2018-09-30T04:30:50.195Z,0.76
2018-09-30T04:32:50.497Z,0.71
2018-09-30T04:34:50.012Z,0.67
2018-09-30T04:36:50.430Z,0.65
2018-09-30T04:38:50.629Z,0.63
2018-09-30T04:40:50.861Z,0.65
2018-09-30T04:42:50.125Z,0.63
2018-09-30T04:44:50.314Z,0.60
2018-09-30T04:46:50.735Z,0.59
2018-09-30T04:48:50.017Z,0.60
2018-09-30T04:50:50.195Z,0.59
2018-09-30T04:52:50.427Z,0.57
2018-09-30T04:54:50.718Z,0.53
2018-09-30T04:56:50.113Z,0.52
2018-09-30T04:58:50.354Z,0.50
2018-09-30T05:00:50.640Z,0.49
2018-09-30T05:02:49.916Z,0.48
2018-09-30T05:04:50.523Z,0.47
2018-09-30T05:06:50.059Z,0.47
2018-09-30T05:08:50.391Z,0.53
2018-09-30T05:10:50.686Z,0.54
2018-09-30T05:12:50.204Z,0.53
2018-09-30T05:14:50.521Z,0.50
2018-09-30T05:16:50.168Z,0.56
2018-09-30T05:18:50.481Z,0.58
2018-09-30T05:20:50.758Z,0.63
2018-09-30T05:22:50.231Z,0.65
2018-09-30T05:24:50.511Z,0.63
2018-09-30T05:26:50.019Z,0.63
2018-09-30T05:28:50.290Z,0.65
2018-09-30T05:30:50.539Z,0.65
2018-09-30T05:32:50.873Z,0.63
2018-09-30T05:34:50.603Z,0.61
2018-09-30T05:36:50.661Z,0.63
2018-09-30T05:38:50.026Z,0.66
2018-09-30T05:40:50.312Z,0.67
2018-09-30T05:42:50.567Z,0.69
2018-09-30T05:44:49.888Z,0.73
2018-09-30T05:46:50.477Z,0.80
2018-09-30T05:48:50.767Z,0.83
2018-09-30T05:50:50.139Z,0.87
2018-09-30T05:52:50.498Z,0.92
2018-09-30T05:54:50.735Z,1.02
2018-09-30T05:56:50.219Z,1.06
2018-09-30T05:58:50.483Z,1.09
2018-09-30T06:00:50.704Z,1.09
2018-09-30T06:02:50.020Z,1.29
2018-09-30T06:04:50.602Z,1.35
2018-09-30T06:06:50.036Z,1.46
2018-09-30T06:08:50.462Z,1.80
2018-09-30T06:10:49.948Z,2.01
2018-09-30T06:12:50.313Z,2.20
2018-09-30T06:14:50.617Z,2.30
2018-09-30T06:16:50.240Z,2.36
2018-09-30T06:18:50.519Z,2.38
2018-09-30T06:20:50.833Z,2.49
2018-09-30T06:22:50.232Z,2.61
2018-09-30T06:24:50.575Z,2.69
2018-09-30T06:26:50.052Z,2.87
2018-09-30T06:28:50.435Z,3.02
2018-09-30T06:30:50.748Z,3.2
2018-09-30T06:32:50.110Z,3.2
2018-09-30T06:34:50.701Z,3.4
2018-09-30T06:36:50.181Z,3.5
2018-09-30T06:38:50.544Z,3.6
2018-09-30T06:40:49.943Z,3.6
2018-09-30T06:42:50.172Z,3.7
2018-09-30T06:44:50.688Z,3.8
2018-09-30T06:46:50.188Z,3.9
2018-09-30T06:48:50.514Z,4.1
2018-09-30T06:50:51.453Z,4.1
2018-09-30T06:52:50.770Z,4.1
2018-09-30T06:54:50.137Z,4.2
2018-09-30T06:56:50.653Z,4.4
2018-09-30T06:58:49.963Z,4.4
2018-09-30T07:00:50.296Z,4.5
2018-09-30T07:02:50.596Z,4.7
2018-09-30T07:04:50.800Z,4.8
2018-09-30T07:06:50.420Z,4.9
2018-09-30T07:08:50.652Z,5.0
2018-09-30T07:10:50.484Z,5.0
2018-09-30T07:12:50.864Z,5.1
2018-09-30T07:14:50.303Z,5.3
2018-09-30T07:16:51.225Z,5.3
2018-09-30T07:18:50.671Z,5.3
2018-09-30T07:20:50.093Z,5.4
2018-09-30T07:22:51.150Z,5.6
2018-09-30T07:24:50.585Z,5.7
2018-09-30T07:26:50.127Z,5.9
2018-09-30T07:28:50.499Z,6.0
2018-09-30T07:30:50.822Z,6.0
2018-09-30T07:32:50.625Z,6.1
2018-09-30T07:34:50.554Z,6.3
2018-09-30T07:36:50.221Z,6.4
2018-09-30T07:38:50.632Z,6.4
2018-09-30T07:40:50.032Z,6.4
2018-09-30T07:42:50.339Z,6.7
2018-09-30T07:44:50.712Z,6.9
2018-09-30T07:46:50.932Z,7.0
2018-09-30T07:48:50.404Z,7.1
2018-09-30T07:50:50.698Z,7.1
2018-09-30T07:52:50.062Z,7.3
2018-09-30T07:54:50.437Z,7.5
2018-09-30T07:56:50.876Z,7.5
2018-09-30T07:58:50.262Z,7.6
2018-09-30T08:00:50.674Z,7.7
2018-09-30T08:02:50.113Z,7.8
2018-09-30T08:04:50.714Z,8.0
2018-09-30T08:06:50.329Z,8.0
2018-09-30T08:08:50.823Z,8.0
2018-09-30T08:10:50.091Z,8.2
2018-09-30T08:12:50.371Z,8.3
2018-09-30T08:14:50.760Z,8.4
2018-09-30T08:16:50.925Z,8.4
2018-09-30T08:18:50.345Z,8.6
2018-09-30T08:20:50.702Z,8.8
2018-09-30T08:22:49.991Z,8.9
2018-09-30T08:24:50.327Z,8.9
2018-09-30T08:26:50.803Z,8.9
2018-09-30T08:28:50.146Z,9.1
2018-09-30T08:30:51.249Z,9.3
2018-09-30T08:32:50.716Z,9.4
2018-09-30T08:34:50.551Z,9.4
2018-09-30T08:36:50.160Z,9.6
2018-09-30T08:38:50.533Z,9.8
2018-09-30T08:40:50.804Z,9.9
2018-09-30T08:42:50.764Z,10.0
2018-09-30T08:44:50.117Z,10.0
2018-09-30T08:46:51.367Z,10.2
2018-09-30T08:48:50.001Z,10.2
2018-09-30T08:50:50.348Z,10.4
2018-09-30T08:52:50.646Z,10.4
2018-09-30T08:54:50.012Z,10.5
2018-09-30T08:56:50.533Z,10.6
2018-09-30T08:58:49.929Z,10.7
2018-09-30T09:00:50.221Z,10.9
2018-09-30T09:02:50.497Z,10.9
2018-09-30T09:04:50.212Z,11.0
2018-09-30T09:06:50.653Z,11.0
2018-09-30T09:08:49.890Z,11.1
2018-09-30T09:10:50.182Z,11.3
2018-09-30T09:12:50.532Z,11.3
2018-09-30T09:14:50.834Z,11.4
2018-09-30T09:16:50.253Z,11.5
2018-09-30T09:18:50.508Z,11.6
2018-09-30T09:20:50.760Z,11.7
2018-09-30T09:22:50.988Z,11.7
2018-09-30T09:24:50.379Z,11.8
2018-09-30T09:26:50.678Z,11.8
2018-09-30T09:28:50.866Z,12.0
2018-09-30T09:30:50.135Z,12.1
2018-09-30T09:32:50.468Z,12.1
2018-09-30T09:34:50.033Z,12.2
2018-09-30T09:36:50.380Z,12.2
2018-09-30T09:38:50.697Z,12.4
2018-09-30T09:40:49.888Z,12.5
2018-09-30T09:42:50.177Z,12.5
2018-09-30T09:44:50.352Z,12.6
2018-09-30T09:46:50.915Z,12.7
2018-09-30T09:48:50.196Z,12.8
2018-09-30T09:50:50.395Z,12.8
2018-09-30T09:52:50.704Z,12.8
2018-09-30T09:54:49.992Z,13.0
2018-09-30T09:56:50.577Z,13.0
2018-09-30T09:58:50.503Z,13.1
2018-09-30T10:00:50.016Z,13.2
2018-09-30T10:02:50.382Z,13.2
2018-09-30T10:04:49.900Z,13.3
2018-09-30T10:06:50.364Z,13.4
2018-09-30T10:08:50.605Z,13.4
2018-09-30T10:10:50.901Z,13.5
2018-09-30T10:12:50.168Z,13.6
2018-09-30T10:14:50.509Z,13.6
2018-09-30T10:16:50.073Z,13.7
2018-09-30T10:18:50.243Z,13.7
2018-09-30T10:20:50.497Z,13.8
2018-09-30T10:22:50.737Z,13.8
2018-09-30T10:24:50.794Z,13.8
2018-09-30T10:26:50.552Z,13.9
2018-09-30T10:28:50.784Z,13.9
2018-09-30T10:30:50.174Z,14.0
2018-09-30T10:32:50.466Z,14.1
2018-09-30T10:34:50.294Z,14.2
2018-09-30T10:36:50.868Z,14.2
2018-09-30T10:38:51.280Z,14.2
2018-09-30T10:40:50.719Z,14.3
2018-09-30T10:42:50.064Z,14.4
2018-09-30T10:44:50.384Z,14.4
2018-09-30T10:46:49.961Z,14.5
2018-09-30T10:48:50.456Z,14.5
2018-09-30T10:50:49.911Z,14.6
2018-09-30T10:52:50.326Z,14.8
2018-09-30T10:54:50.739Z,14.8
2018-09-30T10:56:50.887Z,15.0
2018-09-30T10:58:50.549Z,15.0
2018-09-30T11:00:50.023Z,15.1
2018-09-30T11:02:50.461Z,15.2
2018-09-30T11:04:50.273Z,15.2
2018-09-30T11:06:49.947Z,15.2
2018-09-30T11:08:50.384Z,15.4
2018-09-30T11:10:50.867Z,15.4
2018-09-30T11:12:50.348Z,15.5
2018-09-30T11:14:50.752Z,15.5
2018-09-30T11:16:50.375Z,15.6
2018-09-30T11:18:50.892Z,15.8
2018-09-30T11:20:50.442Z,15.8
2018-09-30T11:22:49.993Z,15.9
2018-09-30T11:24:50.492Z,15.9
2018-09-30T11:26:50.193Z,16.0
2018-09-30T11:28:50.515Z,16.0
2018-09-30T11:30:50.690Z,16.2
2018-09-30T11:32:49.935Z,16.2
2018-09-30T11:34:50.546Z,16.2
2018-09-30T11:36:50.034Z,16.2
2018-09-30T11:38:50.329Z,16.3
2018-09-30T11:40:50.619Z,16.4
2018-09-30T11:42:51.036Z,16.4
2018-09-30T11:44:50.278Z,16.4
2018-09-30T11:46:50.582Z,16.5
2018-09-30T11:48:49.897Z,16.6
2018-09-30T11:50:50.210Z,16.6
2018-09-30T11:52:51.536Z,16.6
2018-09-30T11:54:50.676Z,16.7
2018-09-30T11:56:49.945Z,16.8
2018-09-30T11:58:50.125Z,16.8
2018-09-30T12:00:50.397Z,16.9
2018-09-30T12:02:50.610Z,16.9
2018-09-30T12:04:50.295Z,17.0
2018-09-30T12:06:50.764Z,17.0
2018-09-30T12:08:49.992Z,17.2
2018-09-30T12:10:50.190Z,17.2
2018-09-30T12:12:50.418Z,17.3
2018-09-30T12:14:50.621Z,17.4
2018-09-30T12:16:50.164Z,17.4
2018-09-30T12:18:51.049Z,17.5
2018-09-30T12:20:50.435Z,17.6
2018-09-30T12:22:50.676Z,17.6
2018-09-30T12:24:49.988Z,17.6
2018-09-30T12:26:50.258Z,17.8
2018-09-30T12:28:50.477Z,17.8
2018-09-30T12:30:50.755Z,17.9
2018-09-30T12:32:50.084Z,17.9
2018-09-30T12:34:50.698Z,18.0
2018-09-30T12:36:50.330Z,18.0
2018-09-30T12:38:50.516Z,18.0
2018-09-30T12:40:50.683Z,18.0
2018-09-30T12:42:49.981Z,18.1
2018-09-30T12:44:50.186Z,18.2
2018-09-30T12:46:50.545Z,18.2
2018-09-30T12:48:50.741Z,18.2
2018-09-30T12:50:50.082Z,18.3
2018-09-30T12:52:50.334Z,18.3
2018-09-30T12:54:50.592Z,18.4
2018-09-30T12:56:49.992Z,18.4
2018-09-30T12:58:50.274Z,18.4
2018-09-30T13:00:50.485Z,18.4
2018-09-30T13:02:50.823Z,18.5
2018-09-30T13:04:50.430Z,18.6
2018-09-30T13:06:50.845Z,18.6
2018-09-30T13:08:50.076Z,18.6
2018-09-30T13:10:50.364Z,18.6
2018-09-30T13:12:50.640Z,18.7
2018-09-30T13:14:50.849Z,18.7
2018-09-30T13:16:50.217Z,18.8
2018-09-30T13:18:50.487Z,18.8
2018-09-30T13:20:50.934Z,18.8
2018-09-30T13:22:50.182Z,18.8
2018-09-30T13:24:50.314Z,18.8
2018-09-30T13:26:50.715Z,18.9
2018-09-30T13:28:50.048Z,18.9
2018-09-30T13:30:50.289Z,18.9
2018-09-30T13:32:50.499Z,19.0
2018-09-30T13:34:50.035Z,19.0
2018-09-30T13:36:50.400Z,19.0
2018-09-30T13:38:50.669Z,19.0
2018-09-30T13:40:51.283Z,19.0
2018-09-30T13:42:50.015Z,19.1
2018-09-30T13:44:50.300Z,19.1
2018-09-30T13:46:50.697Z,19.1
2018-09-30T13:48:49.954Z,19.1
2018-09-30T13:50:50.192Z,19.1
2018-09-30T13:52:50.372Z,19.1
2018-09-30T13:54:50.699Z,19.2
2018-09-30T13:56:50.123Z,19.2
2018-09-30T13:58:50.371Z,19.2
2018-09-30T14:00:50.652Z,19.2
2018-09-30T14:02:50.868Z,19.3
2018-09-30T14:04:50.530Z,19.3
2018-09-30T14:06:50.118Z,19.3
2018-09-30T14:08:50.449Z,19.3
2018-09-30T14:10:50.750Z,19.4
2018-09-30T14:12:49.944Z,19.4
2018-09-30T14:14:50.205Z,19.4
2018-09-30T14:16:50.557Z,19.5
2018-09-30T14:18:50.787Z,19.4
2018-09-30T14:20:50.110Z,19.5
2018-09-30T14:22:50.408Z,19.4
2018-09-30T14:24:50.696Z,19.4
2018-09-30T14:26:50.451Z,19.4
2018-09-30T14:28:50.735Z,19.4
2018-09-30T14:30:49.904Z,19.4
2018-09-30T14:32:50.174Z,19.4
2018-09-30T14:34:50.646Z,19.4
2018-09-30T14:36:50.007Z,19.4
2018-09-30T14:38:50.175Z,19.4
2018-09-30T14:40:50.369Z,19.4
2018-09-30T14:42:50.665Z,19.4
2018-09-30T14:44:50.850Z,19.4
2018-09-30T14:46:50.378Z,19.4
2018-09-30T14:48:50.544Z,19.4
2018-09-30T14:50:50.736Z,19.4
2018-09-30T14:52:49.963Z,19.4
2018-09-30T14:54:50.206Z,19.4
2018-09-30T14:56:50.542Z,19.4
2018-09-30T14:58:50.801Z,19.4
2018-09-30T15:00:50.051Z,19.3
2018-09-30T15:02:50.269Z,19.3
2018-09-30T15:04:50.737Z,19.3
2018-09-30T15:06:50.195Z,19.3
2018-09-30T15:08:50.401Z,19.2
2018-09-30T15:10:50.560Z,19.2
2018-09-30T15:12:50.670Z,19.1
2018-09-30T15:14:49.891Z,19.1
2018-09-30T15:16:50.237Z,19.1
2018-09-30T15:18:50.425Z,19.1
2018-09-30T15:20:50.546Z,19.0
2018-09-30T15:22:50.796Z,19.0
2018-09-30T15:24:49.978Z,19.0
2018-09-30T15:26:50.396Z,19.0
2018-09-30T15:28:50.635Z,19.0
2018-09-30T15:30:50.721Z,18.9
2018-09-30T15:32:49.899Z,18.9
2018-09-30T15:34:50.472Z,18.9
2018-09-30T15:36:50.756Z,18.9
2018-09-30T15:38:49.944Z,18.8
2018-09-30T15:40:50.099Z,18.8
2018-09-30T15:42:50.635Z,18.62
2018-09-30T15:44:49.873Z,18.51
2018-09-30T15:46:50.231Z,18.42
2018-09-30T15:48:50.421Z,18.32
2018-09-30T15:50:50.632Z,18.29
2018-09-30T15:52:50.822Z,18.15
2018-09-30T15:54:50.025Z,18.01
2018-09-30T15:56:50.491Z,17.89
2018-09-30T15:58:50.725Z,17.83
2018-09-30T16:00:49.882Z,17.79
2018-09-30T16:02:50.095Z,17.75
2018-09-30T16:04:50.563Z,17.72
2018-09-30T16:06:49.942Z,17.66
2018-09-30T16:08:50.151Z,17.60
2018-09-30T16:10:50.337Z,17.53
2018-09-30T16:12:50.573Z,17.46
2018-09-30T16:14:50.731Z,17.41
2018-09-30T16:16:50.091Z,17.33
2018-09-30T16:18:50.269Z,17.26
2018-09-30T16:20:50.473Z,17.17
2018-09-30T16:22:50.613Z,17.07
2018-09-30T16:24:50.744Z,16.88
2018-09-30T16:26:50.225Z,16.70
2018-09-30T16:28:50.354Z,16.57
2018-09-30T16:30:50.583Z,16.41
2018-09-30T16:32:50.695Z,16.27
2018-09-30T16:34:50.167Z,16.12
2018-09-30T16:36:50.396Z,15.96
2018-09-30T16:38:50.566Z,15.92
2018-09-30T16:40:50.739Z,15.68
2018-09-30T16:42:49.887Z,15.64
2018-09-30T16:44:50.020Z,15.50
2018-09-30T16:46:50.347Z,15.38
2018-09-30T16:48:50.456Z,15.19
2018-09-30T16:50:50.628Z,15.09
2018-09-30T16:52:49.907Z,14.86
2018-09-30T16:54:50.107Z,14.70
2018-09-30T16:56:51.161Z,14.58
2018-09-30T16:58:50.553Z,14.42
2018-09-30T17:00:50.664Z,14.31
2018-09-30T17:02:50.826Z,14.19
2018-09-30T17:04:50.344Z,14.09
2018-09-30T17:06:51.590Z,13.95
2018-09-30T17:08:50.023Z,13.95
2018-09-30T17:10:50.209Z,13.68
2018-09-30T17:12:50.409Z,13.68
2018-09-30T17:14:50.644Z,13.51
2018-09-30T17:16:50.045Z,13.46
2018-09-30T17:18:50.266Z,13.41
2018-09-30T17:20:50.484Z,13.30
2018-09-30T17:22:50.590Z,13.20
2018-09-30T17:24:50.759Z,13.10
2018-09-30T17:26:50.202Z,13.01
2018-09-30T17:28:50.416Z,12.95
2018-09-30T17:30:50.554Z,12.83
2018-09-30T17:32:50.734Z,12.74
2018-09-30T17:34:50.412Z,12.66
2018-09-30T17:36:50.730Z,12.57
2018-09-30T17:38:49.997Z,12.50
2018-09-30T17:40:50.192Z,12.41
2018-09-30T17:42:50.331Z,12.33
2018-09-30T17:44:50.513Z,12.24
2018-09-30T17:46:50.746Z,12.24
2018-09-30T17:48:49.897Z,12.12
2018-09-30T17:50:50.090Z,12.05
2018-09-30T17:52:50.189Z,11.99
2018-09-30T17:54:50.352Z,11.95
2018-09-30T17:56:50.723Z,11.85
2018-09-30T17:58:49.875Z,11.81
2018-09-30T18:00:50.051Z,11.74
2018-09-30T18:02:50.222Z,11.74
2018-09-30T18:04:50.802Z,11.65
2018-09-30T18:06:50.124Z,11.58
2018-09-30T18:08:50.276Z,11.48
2018-09-30T18:10:50.763Z,11.40
2018-09-30T18:12:50.015Z,11.37
2018-09-30T18:14:50.196Z,11.31
2018-09-30T18:16:50.960Z,11.25
2018-09-30T18:18:50.209Z,11.20
2018-09-30T18:20:50.390Z,11.14
2018-09-30T18:22:50.540Z,11.10
2018-09-30T18:24:50.686Z,11.06
2018-09-30T18:26:50.116Z,11.04
2018-09-30T18:28:50.229Z,10.97
2018-09-30T18:30:50.505Z,10.94
2018-09-30T18:32:50.713Z,10.87
2018-09-30T18:34:50.367Z,10.79
2018-09-30T18:36:50.748Z,10.75
2018-09-30T18:38:49.921Z,10.67
2018-09-30T18:40:50.151Z,10.62
2018-09-30T18:42:50.346Z,10.55
2018-09-30T18:44:50.476Z,10.50
2018-09-30T18:46:50.878Z,10.50
2018-09-30T18:48:50.115Z,10.39
2018-09-30T18:50:50.222Z,10.39
2018-09-30T18:52:50.403Z,10.29
2018-09-30T18:54:50.552Z,10.25
2018-09-30T18:56:49.918Z,10.20
2018-09-30T18:58:50.116Z,10.18
2018-09-30T19:00:50.273Z,10.11
2018-09-30T19:02:50.461Z,10.11
2018-09-30T19:04:49.993Z,10.04
2018-09-30T19:06:50.444Z,10.04
2018-09-30T19:08:50.627Z,9.93
2018-09-30T19:10:50.678Z,9.90
2018-09-30T19:12:50.844Z,9.88
2018-09-30T19:14:50.110Z,9.89
2018-09-30T19:16:50.401Z,9.85
2018-09-30T19:18:50.633Z,9.81
2018-09-30T19:20:50.819Z,9.78
2018-09-30T19:22:50.561Z,9.74
2018-09-30T19:24:50.914Z,9.72
2018-09-30T19:26:50.203Z,9.69
2018-09-30T19:28:50.404Z,9.69
2018-09-30T19:30:50.572Z,9.66
2018-09-30T19:32:50.751Z,9.59
2018-09-30T19:34:50.452Z,9.55
2018-09-30T19:36:50.749Z,9.55
2018-09-30T19:38:50.021Z,9.54
2018-09-30T19:40:50.198Z,9.52
2018-09-30T19:42:50.488Z,9.49
2018-09-30T19:44:50.631Z,9.45
2018-09-30T19:46:50.041Z,9.42
2018-09-30T19:48:50.840Z,9.39
2018-09-30T19:50:50.107Z,9.37
2018-09-30T19:52:50.277Z,9.40
2018-09-30T19:54:50.454Z,9.38
2018-09-30T19:56:50.787Z,9.35
2018-09-30T19:58:49.964Z,9.37
2018-09-30T20:00:50.446Z,9.39
2018-09-30T20:02:50.694Z,9.30
2018-09-30T20:04:50.212Z,9.25
2018-09-30T20:06:50.458Z,9.19
2018-09-30T20:08:50.632Z,9.17
2018-09-30T20:10:50.832Z,9.16
2018-09-30T20:12:49.979Z,9.17
2018-09-30T20:14:50.200Z,9.11
2018-09-30T20:16:50.643Z,9.10
2018-09-30T20:18:50.787Z,9.04
2018-09-30T20:20:50.573Z,9.01
2018-09-30T20:22:49.912Z,8.94
2018-09-30T20:24:50.391Z,8.91
2018-09-30T20:26:50.748Z,8.82
2018-09-30T20:28:49.903Z,8.73
2018-09-30T20:30:50.098Z,8.67
2018-09-30T20:32:50.233Z,8.61
2018-09-30T20:34:50.612Z,8.58
2018-09-30T20:36:50.015Z,8.52
2018-09-30T20:38:50.233Z,8.50
2018-09-30T20:40:50.394Z,8.45
2018-09-30T20:42:50.640Z,8.40
2018-09-30T20:44:50.802Z,8.40
2018-09-30T20:46:50.168Z,8.34
2018-09-30T20:48:50.647Z,8.32
2018-09-30T20:50:49.960Z,8.30
2018-09-30T20:52:50.036Z,8.26
2018-09-30T20:54:50.204Z,8.23
2018-09-30T20:56:50.517Z,8.18
2018-09-30T20:58:50.713Z,8.16
2018-09-30T21:00:49.898Z,8.13
2018-09-30T21:02:50.340Z,8.10
2018-09-30T21:04:50.497Z,8.07
2018-09-30T21:06:49.961Z,8.08
2018-09-30T21:08:50.114Z,8.08
2018-09-30T21:10:50.564Z,8.07
2018-09-30T21:12:50.842Z,8.07
2018-09-30T21:14:49.995Z,8.01
2018-09-30T21:16:50.439Z,7.93
2018-09-30T21:18:51.030Z,7.88
2018-09-30T21:20:50.296Z,7.83
2018-09-30T21:22:50.497Z,7.78
2018-09-30T21:24:50.605Z,7.73
2018-09-30T21:26:50.107Z,7.69
2018-09-30T21:28:50.499Z,7.67
2018-09-30T21:30:50.754Z,7.60
2018-09-30T21:32:49.964Z,7.55
2018-09-30T21:34:50.370Z,7.52
2018-09-30T21:36:50.553Z,7.46
2018-09-30T21:38:50.808Z,7.43
2018-09-30T21:40:50.048Z,7.37
2018-09-30T21:42:50.280Z,7.37
2018-09-30T21:44:50.497Z,7.32
2018-09-30T21:46:50.855Z,7.26
2018-09-30T21:48:51.132Z,7.23
2018-09-30T21:50:50.612Z,7.18
2018-09-30T21:52:50.682Z,7.18
2018-09-30T21:54:50.095Z,7.15
2018-09-30T21:56:50.445Z,7.13
2018-09-30T21:58:50.640Z,7.11
2018-09-30T22:00:50.867Z,7.11
2018-09-30T22:02:50.026Z,7.08
2018-09-30T22:04:50.424Z,7.07
2018-09-30T22:06:50.731Z,7.06
2018-09-30T22:08:49.889Z,7.11
2018-09-30T22:10:50.154Z,7.14
2018-09-30T22:12:50.355Z,7.14
2018-09-30T22:14:50.581Z,7.13
2018-09-30T22:16:49.964Z,7.06
2018-09-30T22:18:50.133Z,7.05
2018-09-30T22:20:50.319Z,7.00
2018-09-30T22:22:50.467Z,6.96
2018-09-30T22:24:50.625Z,6.86
2018-09-30T22:26:50.227Z,6.83
2018-09-30T22:28:50.405Z,6.80
2018-09-30T22:30:50.571Z,6.78
2018-09-30T22:32:50.741Z,6.78
2018-09-30T22:34:50.464Z,6.67
2018-09-30T22:36:49.878Z,6.65
2018-09-30T22:38:50.002Z,6.60
2018-09-30T22:40:50.251Z,6.57
2018-09-30T22:42:50.361Z,6.52
2018-09-30T22:44:50.467Z,6.49
2018-09-30T22:46:49.867Z,6.48
2018-09-30T22:48:50.114Z,6.44
2018-09-30T22:50:50.264Z,6.42
2018-09-30T22:52:50.459Z,6.40
2018-09-30T22:54:50.652Z,6.38
2018-09-30T22:56:50.063Z,6.38
2018-09-30T22:58:50.253Z,6.33
2018-09-30T23:00:50.393Z,6.32
2018-09-30T23:02:50.656Z,6.31
2018-09-30T23:04:50.090Z,6.31
2018-09-30T23:06:50.444Z,6.27
2018-09-30T23:08:50.647Z,6.21
2018-09-30T23:10:50.849Z,6.21
2018-09-30T23:12:50.047Z,6.19
2018-09-30T23:14:50.214Z,6.18
2018-09-30T23:16:50.602Z,6.14
2018-09-30T23:18:50.730Z,6.10
2018-09-30T23:20:49.982Z,6.11
2018-09-30T23:22:50.155Z,6.09
2018-09-30T23:24:50.251Z,6.09
2018-09-30T23:26:50.621Z,6.04
2018-09-30T23:28:50.792Z,6.02
2018-09-30T23:30:49.900Z,6.02
2018-09-30T23:32:50.119Z,5.96
2018-09-30T23:34:50.633Z,5.94
2018-09-30T23:36:50.059Z,5.87
2018-09-30T23:38:50.207Z,5.85
2018-09-30T23:40:50.316Z,5.81
2018-09-30T23:42:50.539Z,5.79
2018-09-30T23:44:50.693Z,5.73
2018-09-30T23:46:50.051Z,5.73
2018-09-30T23:48:50.283Z,5.69
2018-09-30T23:50:50.365Z,5.66
2018-09-30T23:52:50.513Z,5.65
2018-09-30T23:54:50.724Z,5.66
2018-09-30T23:56:50.153Z,5.65
2018-09-30T23:58:50.298Z,5.61
